Grand Princess — ZCBU5 — position and weather

sailwx.info

Track history (hours):
 
Tides and Currents Weather Stations Pressure Air Temp Water Temp Dewpoint Dewpoint Depression Visibility Wind Speed Wind Dir Waves Ship Positions

Grand Princess

Operator: Princess Cruises

Last reported at 2017-Sep-19 09:00 UTC. Time now 2017-Sep-21 01:28 UTC.
Position N 56°06' W 134°18'.

Length 289.5 m; beam 36 m; draft 8.5 m.

Type: Passenger vessel. MMSI: 310327000.

Wind from 180 at 5 knots

Barometer 1006.8 mb
Air temperature 12.0 ° C
Visibility: greater than 5.4 NM
Dewpoint 7.9 ° C
Water temperature 12.0 ° C

Date/timePositionNaut miles runAvg speedWind from/ knotsBaromVisibWave heightAir tempDewpointWater temp
2017-Sep-19 09:00N 56°06' W 134°18'14123.6 180 / 51006.8 5.4 12.0 7.912.0
2017-Sep-19 03:00N 55°36' W 130°12'67 4.9 240 / 51005.8 5.4 12.0 7.912.0
2017-Sep-18 13:19N 54°39' W 131°14'722.0
2017-Sep-18 13:00N 54°32' W 131°15'1223.7
2017-Sep-18 12:30N 54°21' W 131°06'1222.9
2017-Sep-18 12:00N 54°10' W 131°01'1122.3
2017-Sep-18 11:31N 53°59' W 130°59'1121.8
2017-Sep-18 11:00N 53°48' W 130°58'11422.7
2017-Sep-18 06:00N 52°00' W 130°00'8521.2 240 / 161002.710.8 12.0 7.915.0
2017-Sep-18 02:00N 50°42' W 129°06'80 9.9 250 / 151004.310.8 12.0 6.816.0
2017-Sep-17 18:00N 49°24' W 128°42'6917.2 290 / 301005.010.8 13.5 8.516.0
2017-Sep-17 14:00N 48°18' W 128°12'13819.7 310 / 321014.2 5.4 14.512.718.0
2017-Sep-17 07:00N 46°06' W 127°12'2525.4 230 / 211014.010.8 17.011.520.0
2017-Sep-17 06:00N 45°42' W 127°00'7518.8 260 / 151014.010.8 17.011.520.0
2017-Sep-17 02:00N 44°30' W 126°30'15819.7 330 / 101015.310.8 17.513.117.0
2017-Sep-16 18:00N 42°00' W 125°24'18118.7 360 / 251015.010.8 16.513.917.0
2017-Sep-16 08:17N 39°09' W 124°06'519.4
2017-Sep-16 08:00N 39°04' W 124°03'1019.3
2017-Sep-16 07:30N 38°55' W 123°57'1019.5
2017-Sep-16 07:00N 38°47' W 123°51'1019.4
2017-Sep-16 06:30N 38°39' W 123°44'1019.6
2017-Sep-16 06:00N 38°31' W 123°38'186.9
2017-Sep-16 06:00N 38°30' W 123°36'917.8 310 / 231013.110.8 14.513.616.0
2017-Sep-16 05:30N 38°22' W 123°31'918.6
2017-Sep-16 05:00N 38°15' W 123°24'713.7
2017-Sep-16 04:30N 38°09' W 123°20'510.6
2017-Sep-16 04:00N 38°05' W 123°15'510.5
2017-Sep-16 03:30N 38°01' W 123°11'510.4
2017-Sep-16 03:00N 37°57' W 123°06'510.6
2017-Sep-16 02:30N 37°55' W 123°00'510.8
2017-Sep-16 02:00N 37°52' W 122°54'4264.8
2017-Sep-16 02:00N 37°48' W 122°54'5 9.6 310 / 151013.110.8 15.013.219.0
2017-Sep-16 01:30N 37°49' W 122°48'611.1
2017-Sep-16 01:00N 37°47' W 122°42'611.3
2017-Sep-16 00:30N 37°47' W 122°35'612.9
2017-Sep-16 00:00N 37°49' W 122°28'3 5.3
2017-Sep-15 23:26N 37°48' W 122°24'0 0.0
2017-Sep-15 22:59N 37°48' W 122°24'0 0.0
2017-Sep-15 22:28N 37°48' W 122°24'0 0.0
2017-Sep-15 21:58N 37°48' W 122°24'0 0.0
2017-Sep-15 21:28N 37°48' W 122°24'0 0.0
2017-Sep-15 20:58N 37°48' W 122°24'0 0.0
2017-Sep-15 20:28N 37°48' W 122°24'0 0.0
2017-Sep-15 20:00N 37°48' W 122°24'0 0.0
2017-Sep-15 19:30N 37°48' W 122°24'0 0.0
2017-Sep-15 19:00N 37°48' W 122°24'0 0.0
2017-Sep-15 18:30N 37°48' W 122°24'0 0.0
2017-Sep-15 18:00N 37°48' W 122°24'0 0.0
2017-Sep-15 17:29N 37°48' W 122°24'0 0.0
2017-Sep-15 16:59N 37°48' W 122°24'0 0.0
2017-Sep-15 16:29N 37°48' W 122°24'0 0.0
2017-Sep-15 15:59N 37°48' W 122°24'0 0.0
2017-Sep-15 15:28N 37°48' W 122°24'0 0.0
2017-Sep-15 14:58N 37°48' W 122°24'0 0.0
2017-Sep-15 14:28N 37°48' W 122°24'0 0.0
2017-Sep-15 13:58N 37°48' W 122°24'0 0.0
2017-Sep-15 13:30N 37°48' W 122°24'1 1.9
2017-Sep-15 13:00N 37°49' W 122°25'611.7
2017-Sep-15 12:30N 37°48' W 122°32'815.2
2017-Sep-15 12:00N 37°46' W 122°41'510.7
2017-Sep-15 11:30N 37°47' W 122°48'510.6
2017-Sep-15 11:00N 37°50' W 122°54'510.3
2017-Sep-15 10:30N 37°52' W 122°59'510.3
2017-Sep-15 10:00N 37°55' W 123°05'510.0
2017-Sep-15 09:30N 37°57' W 123°11'510.0
2017-Sep-15 09:00N 38°01' W 123°15'510.2
2017-Sep-15 08:30N 38°05' W 123°19'611.5
2017-Sep-15 08:00N 38°10' W 123°23'917.8
2017-Sep-15 07:30N 38°17' W 123°29'917.6
2017-Sep-15 07:00N 38°25' W 123°35'917.4
2017-Sep-15 06:30N 38°32' W 123°40'917.2
2017-Sep-15 06:00N 38°40' W 123°46'917.4
2017-Sep-15 05:29N 38°48' W 123°52'3619.1
2017-Sep-15 03:36N 39°20' W 124°12'220.4
2017-Sep-15 03:30N 39°22' W 124°13'36221.1
2017-Sep-14 10:20N 45°21' W 125°07'1121.7
2017-Sep-14 09:49N 45°32' W 125°08'821.5
2017-Sep-14 09:27N 45°40' W 125°09'3621.7
2017-Sep-14 07:47N 46°17' W 125°12'722.2
2017-Sep-14 07:27N 46°24' W 125°12'1022.1
2017-Sep-14 07:00N 46°34' W 125°13'6721.6
2017-Sep-14 03:55N 47°40' W 125°18'920.6
2017-Sep-14 03:29N 47°49' W 125°18'1020.2
2017-Sep-14 03:00N 47°59' W 125°17'1020.4
2017-Sep-14 02:30N 48°09' W 125°13'1019.9
2017-Sep-14 02:00N 48°18' W 125°09'1019.8
2017-Sep-14 01:30N 48°28' W 125°04'918.1
2017-Sep-14 01:00N 48°31' W 124°51'1019.6
2017-Sep-14 00:30N 48°29' W 124°37'1020.3
2017-Sep-14 00:00N 48°25' W 124°23'1020.3
2017-Sep-13 23:30N 48°21' W 124°09'1020.6
2017-Sep-13 23:00N 48°17' W 123°54'1021.0
2017-Sep-13 22:30N 48°16' W 123°39'816.9
2017-Sep-13 22:00N 48°19' W 123°27'612.0
2017-Sep-13 21:31N 48°25' W 123°24'0 0.5
2017-Sep-13 21:00N 48°25' W 123°24'0 0.0
2017-Sep-13 20:30N 48°25' W 123°24'0 0.0
2017-Sep-13 20:00N 48°25' W 123°24'0 0.0
2017-Sep-13 19:29N 48°25' W 123°24'0 0.0
2017-Sep-13 18:59N 48°25' W 123°24'0 0.0
2017-Sep-13 18:29N 48°25' W 123°24'0 0.0
2017-Sep-13 17:59N 48°25' W 123°24'0 0.0
2017-Sep-13 17:29N 48°25' W 123°24'0 0.0
2017-Sep-13 16:58N 48°25' W 123°24'0 0.0
2017-Sep-13 16:28N 48°25' W 123°24'0 0.0
2017-Sep-13 15:58N 48°25' W 123°24'0 0.0
2017-Sep-13 15:28N 48°25' W 123°24'0 0.0
2017-Sep-13 14:58N 48°25' W 123°24'0 0.0
2017-Sep-13 14:30N 48°25' W 123°24'0 0.0
2017-Sep-13 14:00N 48°25' W 123°24'0 0.8
2017-Sep-13 13:30N 48°25' W 123°24'510.7
2017-Sep-13 13:00N 48°19' W 123°25'713.6
2017-Sep-13 12:30N 48°14' W 123°31'815.8
2017-Sep-13 12:00N 48°14' W 123°43'815.4
2017-Sep-13 11:30N 48°14' W 123°54'816.9
2017-Sep-13 11:00N 48°17' W 124°06'816.6
2017-Sep-13 10:30N 48°20' W 124°17'815.3
2017-Sep-13 10:00N 48°24' W 124°27'714.7
2017-Sep-13 09:30N 48°27' W 124°38'714.4
2017-Sep-13 09:00N 48°29' W 124°48'714.9
2017-Sep-13 08:30N 48°29' W 124°59'815.9
2017-Sep-13 08:00N 48°29' W 125°11'816.2
2017-Sep-13 07:30N 48°33' W 125°22'816.6
2017-Sep-13 07:00N 48°38' W 125°32'817.0
2017-Sep-13 06:30N 48°43' W 125°42'816.9
2017-Sep-13 06:00N 48°48' W 125°52'917.2
2017-Sep-13 05:30N 48°53' W 126°03'917.7
2017-Sep-13 05:00N 48°58' W 126°14'917.7
2017-Sep-13 04:30N 49°03' W 126°25'917.4
2017-Sep-13 04:00N 49°08' W 126°36'917.5
2017-Sep-13 03:30N 49°13' W 126°47'917.5
2017-Sep-13 03:00N 49°19' W 126°56'917.2
2017-Sep-13 02:30N 49°26' W 127°06'917.6
2017-Sep-13 02:00N 49°32' W 127°15'917.7
2017-Sep-13 01:30N 49°38' W 127°25'11817.1
2017-Sep-12 18:38N 51°07' W 129°25'2417.0
2017-Sep-12 17:13N 51°29' W 129°40'517.0
2017-Sep-12 16:57N 51°33' W 129°43'23411.7
2017-Sep-11 21:00N 55°18' W 131°36'167 9.3 150 / 81007.010.8 12.0 9.0 8.0
2017-Sep-11 03:00N 57°30' W 134°42'5019.5 020 / 51007.010.8 12.0 9.0 8.0
2017-Sep-11 00:26N 58°13' W 135°29'819.1
2017-Sep-11 00:00N 58°18' W 135°42'917.6
2017-Sep-10 23:30N 58°21' W 135°57'611.3
2017-Sep-10 23:00N 58°27' W 136°00'612.0
2017-Sep-10 22:30N 58°33' W 136°03'918.9
2017-Sep-10 22:00N 58°41' W 136°11'1119.6
2017-Sep-10 21:28N 58°48' W 136°27'3 0.6
2017-Sep-10 16:21N 58°50' W 136°30'719.5
2017-Sep-10 16:00N 58°46' W 136°20'1019.6
2017-Sep-10 15:31N 58°39' W 136°07'917.8
2017-Sep-10 15:00N 58°30' W 136°03'2119.3
2017-Sep-10 15:00N 58°30' W 136°00'1010.0 120 / 101009.5 5.4 11.0 9.011.0
2017-Sep-10 14:00N 58°20' W 135°57'612.1
2017-Sep-10 13:30N 58°18' W 135°46'612.0
2017-Sep-10 12:59N 58°16' W 135°35'611.5
2017-Sep-10 12:28N 58°14' W 135°24'30 8.6
2017-Sep-10 09:00N 58°42' W 135°06'27 1.1 170 / 201014.410.8 12.511.615.0
2017-Sep-09 09:00N 58°18' W 134°42'   330 / 91015.410.8 13.011.116.0
Track history (hours):
 
Tides and Currents Weather Stations Pressure Air Temp Water Temp Dewpoint Dewpoint Depression Visibility Wind Speed Wind Dir Waves Ship Positions

Grand Princess

Operator: Princess Cruises

Last reported at 2017-Sep-19 09:00 UTC. Time now 2017-Sep-21 01:28 UTC.
Position N 56°06' W 134°18'.

Length 289.5 m; beam 36 m; draft 8.5 m.

Type: Passenger vessel. MMSI: 310327000.

Wind from 180 at 5 knots

Barometer 1006.8 mb
Air temperature 12.0 ° C
Visibility: greater than 5.4 NM
Dewpoint 7.9 ° C
Water temperature 12.0 ° C

Date/timePositionNaut miles runAvg speedWind from/ knotsBaromVisibWave heightAir tempDewpointWater temp
2017-Sep-19 09:00N 56°06' W 134°18'14123.6 180 / 51006.8 5.4 12.0 7.912.0
2017-Sep-19 03:00N 55°36' W 130°12'67 4.9 240 / 51005.8 5.4 12.0 7.912.0
2017-Sep-18 13:19N 54°39' W 131°14'722.0
2017-Sep-18 13:00N 54°32' W 131°15'1223.7
2017-Sep-18 12:30N 54°21' W 131°06'1222.9
2017-Sep-18 12:00N 54°10' W 131°01'1122.3
2017-Sep-18 11:31N 53°59' W 130°59'1121.8
2017-Sep-18 11:00N 53°48' W 130°58'11422.7
2017-Sep-18 06:00N 52°00' W 130°00'8521.2 240 / 161002.710.8 12.0 7.915.0
2017-Sep-18 02:00N 50°42' W 129°06'80 9.9 250 / 151004.310.8 12.0 6.816.0
2017-Sep-17 18:00N 49°24' W 128°42'6917.2 290 / 301005.010.8 13.5 8.516.0
2017-Sep-17 14:00N 48°18' W 128°12'13819.7 310 / 321014.2 5.4 14.512.718.0
2017-Sep-17 07:00N 46°06' W 127°12'2525.4 230 / 211014.010.8 17.011.520.0
2017-Sep-17 06:00N 45°42' W 127°00'7518.8 260 / 151014.010.8 17.011.520.0
2017-Sep-17 02:00N 44°30' W 126°30'15819.7 330 / 101015.310.8 17.513.117.0
2017-Sep-16 18:00N 42°00' W 125°24'18118.7 360 / 251015.010.8 16.513.917.0
2017-Sep-16 08:17N 39°09' W 124°06'519.4
2017-Sep-16 08:00N 39°04' W 124°03'1019.3
2017-Sep-16 07:30N 38°55' W 123°57'1019.5
2017-Sep-16 07:00N 38°47' W 123°51'1019.4
2017-Sep-16 06:30N 38°39' W 123°44'1019.6
2017-Sep-16 06:00N 38°31' W 123°38'186.9
2017-Sep-16 06:00N 38°30' W 123°36'917.8 310 / 231013.110.8 14.513.616.0
2017-Sep-16 05:30N 38°22' W 123°31'918.6
2017-Sep-16 05:00N 38°15' W 123°24'713.7
2017-Sep-16 04:30N 38°09' W 123°20'510.6
2017-Sep-16 04:00N 38°05' W 123°15'510.5
2017-Sep-16 03:30N 38°01' W 123°11'510.4
2017-Sep-16 03:00N 37°57' W 123°06'510.6
2017-Sep-16 02:30N 37°55' W 123°00'510.8
2017-Sep-16 02:00N 37°52' W 122°54'4264.8
2017-Sep-16 02:00N 37°48' W 122°54'5 9.6 310 / 151013.110.8 15.013.219.0
2017-Sep-16 01:30N 37°49' W 122°48'611.1
2017-Sep-16 01:00N 37°47' W 122°42'611.3
2017-Sep-16 00:30N 37°47' W 122°35'612.9
2017-Sep-16 00:00N 37°49' W 122°28'3 5.3
2017-Sep-15 23:26N 37°48' W 122°24'0 0.0
2017-Sep-15 22:59N 37°48' W 122°24'0 0.0
2017-Sep-15 22:28N 37°48' W 122°24'0 0.0
2017-Sep-15 21:58N 37°48' W 122°24'0 0.0
2017-Sep-15 21:28N 37°48' W 122°24'0 0.0
2017-Sep-15 20:58N 37°48' W 122°24'0 0.0
2017-Sep-15 20:28N 37°48' W 122°24'0 0.0
2017-Sep-15 20:00N 37°48' W 122°24'0 0.0
2017-Sep-15 19:30N 37°48' W 122°24'0 0.0
2017-Sep-15 19:00N 37°48' W 122°24'0 0.0
2017-Sep-15 18:30N 37°48' W 122°24'0 0.0
2017-Sep-15 18:00N 37°48' W 122°24'0 0.0
2017-Sep-15 17:29N 37°48' W 122°24'0 0.0
2017-Sep-15 16:59N 37°48' W 122°24'0 0.0
2017-Sep-15 16:29N 37°48' W 122°24'0 0.0
2017-Sep-15 15:59N 37°48' W 122°24'0 0.0
2017-Sep-15 15:28N 37°48' W 122°24'0 0.0
2017-Sep-15 14:58N 37°48' W 122°24'0 0.0
2017-Sep-15 14:28N 37°48' W 122°24'0 0.0
2017-Sep-15 13:58N 37°48' W 122°24'0 0.0
2017-Sep-15 13:30N 37°48' W 122°24'1 1.9
2017-Sep-15 13:00N 37°49' W 122°25'611.7
2017-Sep-15 12:30N 37°48' W 122°32'815.2
2017-Sep-15 12:00N 37°46' W 122°41'510.7
2017-Sep-15 11:30N 37°47' W 122°48'510.6
2017-Sep-15 11:00N 37°50' W 122°54'510.3
2017-Sep-15 10:30N 37°52' W 122°59'510.3
2017-Sep-15 10:00N 37°55' W 123°05'510.0
2017-Sep-15 09:30N 37°57' W 123°11'510.0
2017-Sep-15 09:00N 38°01' W 123°15'510.2
2017-Sep-15 08:30N 38°05' W 123°19'611.5
2017-Sep-15 08:00N 38°10' W 123°23'917.8
2017-Sep-15 07:30N 38°17' W 123°29'917.6
2017-Sep-15 07:00N 38°25' W 123°35'917.4
2017-Sep-15 06:30N 38°32' W 123°40'917.2
2017-Sep-15 06:00N 38°40' W 123°46'917.4
2017-Sep-15 05:29N 38°48' W 123°52'3619.1
2017-Sep-15 03:36N 39°20' W 124°12'220.4
2017-Sep-15 03:30N 39°22' W 124°13'36221.1
2017-Sep-14 10:20N 45°21' W 125°07'1121.7
2017-Sep-14 09:49N 45°32' W 125°08'821.5
2017-Sep-14 09:27N 45°40' W 125°09'3621.7
2017-Sep-14 07:47N 46°17' W 125°12'722.2
2017-Sep-14 07:27N 46°24' W 125°12'1022.1
2017-Sep-14 07:00N 46°34' W 125°13'6721.6
2017-Sep-14 03:55N 47°40' W 125°18'920.6
2017-Sep-14 03:29N 47°49' W 125°18'1020.2
2017-Sep-14 03:00N 47°59' W 125°17'1020.4
2017-Sep-14 02:30N 48°09' W 125°13'1019.9
2017-Sep-14 02:00N 48°18' W 125°09'1019.8
2017-Sep-14 01:30N 48°28' W 125°04'918.1
2017-Sep-14 01:00N 48°31' W 124°51'1019.6
2017-Sep-14 00:30N 48°29' W 124°37'1020.3
2017-Sep-14 00:00N 48°25' W 124°23'1020.3
2017-Sep-13 23:30N 48°21' W 124°09'1020.6
2017-Sep-13 23:00N 48°17' W 123°54'1021.0
2017-Sep-13 22:30N 48°16' W 123°39'816.9
2017-Sep-13 22:00N 48°19' W 123°27'612.0
2017-Sep-13 21:31N 48°25' W 123°24'0 0.5
2017-Sep-13 21:00N 48°25' W 123°24'0 0.0
2017-Sep-13 20:30N 48°25' W 123°24'0 0.0
2017-Sep-13 20:00N 48°25' W 123°24'0 0.0
2017-Sep-13 19:29N 48°25' W 123°24'0 0.0
2017-Sep-13 18:59N 48°25' W 123°24'0 0.0
2017-Sep-13 18:29N 48°25' W 123°24'0 0.0
2017-Sep-13 17:59N 48°25' W 123°24'0 0.0
2017-Sep-13 17:29N 48°25' W 123°24'0 0.0
2017-Sep-13 16:58N 48°25' W 123°24'0 0.0
2017-Sep-13 16:28N 48°25' W 123°24'0 0.0
2017-Sep-13 15:58N 48°25' W 123°24'0 0.0
2017-Sep-13 15:28N 48°25' W 123°24'0 0.0
2017-Sep-13 14:58N 48°25' W 123°24'0 0.0
2017-Sep-13 14:30N 48°25' W 123°24'0 0.0
2017-Sep-13 14:00N 48°25' W 123°24'0 0.8
2017-Sep-13 13:30N 48°25' W 123°24'510.7
2017-Sep-13 13:00N 48°19' W 123°25'713.6
2017-Sep-13 12:30N 48°14' W 123°31'815.8
2017-Sep-13 12:00N 48°14' W 123°43'815.4
2017-Sep-13 11:30N 48°14' W 123°54'816.9
2017-Sep-13 11:00N 48°17' W 124°06'816.6
2017-Sep-13 10:30N 48°20' W 124°17'815.3
2017-Sep-13 10:00N 48°24' W 124°27'714.7
2017-Sep-13 09:30N 48°27' W 124°38'714.4
2017-Sep-13 09:00N 48°29' W 124°48'714.9
2017-Sep-13 08:30N 48°29' W 124°59'815.9
2017-Sep-13 08:00N 48°29' W 125°11'816.2
2017-Sep-13 07:30N 48°33' W 125°22'816.6
2017-Sep-13 07:00N 48°38' W 125°32'817.0
2017-Sep-13 06:30N 48°43' W 125°42'816.9
2017-Sep-13 06:00N 48°48' W 125°52'917.2
2017-Sep-13 05:30N 48°53' W 126°03'917.7
2017-Sep-13 05:00N 48°58' W 126°14'917.7
2017-Sep-13 04:30N 49°03' W 126°25'917.4
2017-Sep-13 04:00N 49°08' W 126°36'917.5
2017-Sep-13 03:30N 49°13' W 126°47'917.5
2017-Sep-13 03:00N 49°19' W 126°56'917.2
2017-Sep-13 02:30N 49°26' W 127°06'917.6
2017-Sep-13 02:00N 49°32' W 127°15'917.7
2017-Sep-13 01:30N 49°38' W 127°25'11817.1
2017-Sep-12 18:38N 51°07' W 129°25'2417.0
2017-Sep-12 17:13N 51°29' W 129°40'517.0
2017-Sep-12 16:57N 51°33' W 129°43'23411.7
2017-Sep-11 21:00N 55°18' W 131°36'167 9.3 150 / 81007.010.8 12.0 9.0 8.0
2017-Sep-11 03:00N 57°30' W 134°42'5019.5 020 / 51007.010.8 12.0 9.0 8.0
2017-Sep-11 00:26N 58°13' W 135°29'819.1
2017-Sep-11 00:00N 58°18' W 135°42'917.6
2017-Sep-10 23:30N 58°21' W 135°57'611.3
2017-Sep-10 23:00N 58°27' W 136°00'612.0
2017-Sep-10 22:30N 58°33' W 136°03'918.9
2017-Sep-10 22:00N 58°41' W 136°11'1119.6
2017-Sep-10 21:28N 58°48' W 136°27'3 0.6
2017-Sep-10 16:21N 58°50' W 136°30'719.5
2017-Sep-10 16:00N 58°46' W 136°20'1019.6
2017-Sep-10 15:31N 58°39' W 136°07'917.8
2017-Sep-10 15:00N 58°30' W 136°03'2119.3
2017-Sep-10 15:00N 58°30' W 136°00'1010.0 120 / 101009.5 5.4 11.0 9.011.0
2017-Sep-10 14:00N 58°20' W 135°57'612.1
2017-Sep-10 13:30N 58°18' W 135°46'612.0
2017-Sep-10 12:59N 58°16' W 135°35'611.5
2017-Sep-10 12:28N 58°14' W 135°24'30 8.6
2017-Sep-10 09:00N 58°42' W 135°06'27 1.1 170 / 201014.410.8 12.511.615.0
2017-Sep-09 09:00N 58°18' W 134°42'   330 / 91015.410.8 13.011.116.0

Dump ship's entire track history